createdAt,value
2019-02-22T00:01:20.903Z,18.62
2019-02-22T00:03:50.350Z,18.25
2019-02-22T00:06:19.783Z,18.37
2019-02-22T00:08:49.210Z,19.82
2019-02-22T00:11:18.656Z,21.35
2019-02-22T00:13:48.083Z,20.27
2019-02-22T00:16:17.527Z,19.10
2019-02-22T00:18:47.043Z,20.82
2019-02-22T00:21:16.467Z,19.45
2019-02-22T00:23:45.894Z,20.52
2019-02-22T00:26:15.356Z,22.93
2019-02-22T00:28:44.787Z,27.13
2019-02-22T00:31:14.210Z,29.32
2019-02-22T00:33:43.653Z,29.75
2019-02-22T00:36:14.074Z,29.52
2019-02-22T00:38:43.697Z,26.85
2019-02-22T00:41:13.135Z,29.50
2019-02-22T00:43:42.600Z,28.60
2019-02-22T00:46:12.007Z,29.82
2019-02-22T00:48:41.460Z,29.40
2019-02-22T00:51:10.876Z,30.05
2019-02-22T00:53:40.291Z,28.50
2019-02-22T00:56:09.735Z,28.70
2019-02-22T00:58:39.151Z,31.42
2019-02-22T01:01:08.575Z,30.52
2019-02-22T01:03:38.004Z,30.77
2019-02-22T01:06:07.408Z,32.83
2019-02-22T01:08:36.855Z,31.10
2019-02-22T01:11:06.291Z,34.27
2019-02-22T01:13:35.713Z,35.60
2019-02-22T01:16:05.152Z,34.78
2019-02-22T01:18:34.576Z,35.55
2019-02-22T01:21:04.028Z,36.53
2019-02-22T01:23:33.514Z,35.85
2019-02-22T01:26:02.916Z,34.55
2019-02-22T01:28:32.327Z,34.55
2019-02-22T01:31:01.773Z,34.85
2019-02-22T01:33:31.217Z,37.40
2019-02-22T01:36:00.635Z,38.33
2019-02-22T01:38:30.066Z,37.08
2019-02-22T01:40:59.507Z,35.85
2019-02-22T01:43:28.948Z,37.93
2019-02-22T01:45:58.697Z,37.90
2019-02-22T01:48:28.126Z,38.02
2019-02-22T01:50:57.573Z,36.73
2019-02-22T01:53:26.979Z,37.55
2019-02-22T01:55:56.411Z,38.70
2019-02-22T01:58:25.831Z,37.67
2019-02-22T02:00:55.258Z,37.88
2019-02-22T02:03:24.670Z,38.17
2019-02-22T02:05:54.189Z,38.38
2019-02-22T02:08:23.613Z,38.80
2019-02-22T02:10:54.423Z,38.42
2019-02-22T02:13:24.070Z,38.13
2019-02-22T02:15:53.482Z,37.80
2019-02-22T02:18:22.930Z,39.27
2019-02-22T02:20:52.435Z,39.83
2019-02-22T02:23:21.862Z,39.67
2019-02-22T02:25:51.353Z,40.50
2019-02-22T02:28:20.774Z,41.98
2019-02-22T02:30:50.213Z,41.10
2019-02-22T02:33:19.655Z,41.25
2019-02-22T02:35:49.058Z,42.48
2019-02-22T02:38:18.487Z,43.63
2019-02-22T02:40:47.906Z,42.55
2019-02-22T02:43:17.339Z,44.20
2019-02-22T02:45:46.842Z,44.08
2019-02-22T02:48:16.281Z,45.63
2019-02-22T02:50:45.689Z,45.80
2019-02-22T02:53:15.119Z,48.00
2019-02-22T02:55:44.532Z,49.00
2019-02-22T02:58:13.962Z,51.18
2019-02-22T03:00:43.364Z,51.75
2019-02-22T03:03:12.787Z,51.50
2019-02-22T03:05:43.945Z,59.38
2019-02-22T03:08:13.683Z,56.85
2019-02-22T03:10:43.087Z,56.65
2019-02-22T03:13:12.599Z,57.27
2019-02-22T03:15:41.949Z,57.48
2019-02-22T03:18:11.363Z,58.52
2019-02-22T03:20:40.836Z,60.05
2019-02-22T03:23:10.242Z,58.48
2019-02-22T03:25:39.699Z,55.67
2019-02-22T03:28:09.101Z,57.88
2019-02-22T03:30:38.545Z,59.77
2019-02-22T03:33:07.957Z,61.20
2019-02-22T03:35:37.439Z,56.70
2019-02-22T03:38:06.864Z,60.52
2019-02-22T03:40:36.281Z,61.20
2019-02-22T03:43:05.695Z,61.60
2019-02-22T03:45:35.144Z,60.52
2019-02-22T03:48:04.560Z,62.23
2019-02-22T03:50:34.008Z,63.33
2019-02-22T03:53:13.860Z,61.95
2019-02-22T03:55:43.296Z,62.73
2019-02-22T03:58:12.727Z,64.30
2019-02-22T04:00:42.878Z,66.92
2019-02-22T04:03:12.303Z,62.70
2019-02-22T04:05:41.730Z,64.85
2019-02-22T04:08:11.144Z,67.22
2019-02-22T04:10:40.564Z,61.53
2019-02-22T04:13:10.012Z,63.15
2019-02-22T04:15:39.527Z,63.17
2019-02-22T04:18:08.947Z,64.30
2019-02-22T04:20:38.395Z,66.00
2019-02-22T04:23:07.823Z,71.45
2019-02-22T04:25:37.266Z,71.33
2019-02-22T04:28:06.706Z,72.10
2019-02-22T04:30:37.922Z,69.25
2019-02-22T04:33:07.245Z,67.15
2019-02-22T04:35:36.603Z,72.10
2019-02-22T04:38:06.064Z,72.95
2019-02-22T04:40:35.502Z,72.27
2019-02-22T04:43:04.920Z,69.90
2019-02-22T04:45:34.381Z,62.98
2019-02-22T04:48:03.804Z,66.33
2019-02-22T04:50:33.252Z,67.58
2019-02-22T04:53:02.702Z,63.05
2019-02-22T04:55:32.127Z,65.15
2019-02-22T04:58:01.528Z,66.02
2019-02-22T05:00:30.970Z,64.67
2019-02-22T05:03:00.443Z,60.15
2019-02-22T05:05:29.804Z,59.15
2019-02-22T05:07:59.259Z,64.42
2019-02-22T05:10:28.667Z,64.42
2019-02-22T05:12:58.097Z,63.63
2019-02-22T05:15:27.551Z,64.37
2019-02-22T05:17:56.994Z,62.25
2019-02-22T05:20:26.395Z,61.63
2019-02-22T05:23:03.749Z,59.00
2019-02-22T05:25:26.893Z,59.75
2019-02-22T05:27:56.319Z,60.15
2019-02-22T05:30:25.750Z,59.50
2019-02-22T05:32:55.186Z,62.23
2019-02-22T05:35:24.682Z,60.78
2019-02-22T05:37:54.118Z,60.88
2019-02-22T05:40:23.554Z,60.23
2019-02-22T05:42:52.989Z,55.48
2019-02-22T05:45:22.450Z,59.03
2019-02-22T05:47:51.868Z,57.70
2019-02-22T05:50:21.293Z,57.05
2019-02-22T05:52:50.748Z,54.20
2019-02-22T05:55:20.164Z,55.52
2019-02-22T05:57:49.582Z,57.08
2019-02-22T06:00:19.507Z,59.67
2019-02-22T06:02:48.930Z,57.85
2019-02-22T06:05:18.347Z,58.78
2019-02-22T06:07:48.095Z,59.25
2019-02-22T06:10:17.518Z,60.80
2019-02-22T06:12:47.095Z,58.17
2019-02-22T06:15:16.787Z,62.80
2019-02-22T06:17:46.202Z,60.52
2019-02-22T06:20:15.621Z,62.23
2019-02-22T06:22:45.082Z,60.83
2019-02-22T06:25:14.532Z,62.95
2019-02-22T06:27:45.567Z,63.28
2019-02-22T06:30:15.025Z,60.40
2019-02-22T06:32:44.559Z,60.95
2019-02-22T06:35:13.966Z,62.95
2019-02-22T06:37:43.448Z,61.98
2019-02-22T06:40:12.847Z,62.13
2019-02-22T06:42:45.789Z,63.13
2019-02-22T06:45:13.356Z,62.67
2019-02-22T06:47:42.808Z,65.75
2019-02-22T06:50:12.227Z,64.27
2019-02-22T06:52:41.676Z,65.20
2019-02-22T06:55:11.308Z,69.03
2019-02-22T06:57:41.851Z,74.17
2019-02-22T07:00:12.811Z,74.22
2019-02-22T07:02:42.242Z,67.75
2019-02-22T07:05:11.719Z,68.52
2019-02-22T07:07:41.244Z,66.35
2019-02-22T07:10:11.330Z,67.55
2019-02-22T07:12:57.054Z,64.72
2019-02-22T07:15:25.389Z,64.10
2019-02-22T07:17:55.071Z,67.60
2019-02-22T07:20:24.692Z,62.75
2019-02-22T07:22:54.385Z,63.78
2019-02-22T07:25:23.822Z,66.90
2019-02-22T07:27:53.225Z,64.37
2019-02-22T07:30:22.667Z,67.17
2019-02-22T07:32:55.139Z,68.85
2019-02-22T07:35:24.625Z,68.02
2019-02-22T07:37:54.454Z,68.02
2019-02-22T07:40:23.850Z,73.92
2019-02-22T07:42:53.330Z,75.65
2019-02-22T07:45:22.732Z,73.97
2019-02-22T07:47:52.298Z,72.42
2019-02-22T07:50:21.740Z,76.65
2019-02-22T07:52:51.189Z,73.10
2019-02-22T07:55:20.651Z,70.47
2019-02-22T07:57:50.068Z,70.45
2019-02-22T08:00:19.499Z,69.72
2019-02-22T08:02:48.952Z,70.60
2019-02-22T08:05:18.405Z,68.40
2019-02-22T08:07:48.036Z,63.85
2019-02-22T08:10:17.577Z,65.28
2019-02-22T08:12:48.140Z,66.17
2019-02-22T08:15:17.554Z,63.73
2019-02-22T08:17:47.066Z,61.63
2019-02-22T08:20:16.522Z,64.00
2019-02-22T08:22:45.964Z,62.95
2019-02-22T08:25:15.432Z,63.30
2019-02-22T08:27:52.952Z,58.17
2019-02-22T08:30:15.911Z,60.40
2019-02-22T08:32:45.364Z,62.48
2019-02-22T08:35:14.795Z,61.63
2019-02-22T08:37:44.225Z,58.92
2019-02-22T08:40:13.697Z,58.75
2019-02-22T08:42:43.115Z,57.65
2019-02-22T08:45:12.627Z,57.50
2019-02-22T08:47:42.162Z,59.77
2019-02-22T08:50:14.333Z,59.85
2019-02-22T08:52:42.663Z,56.95
2019-02-22T08:55:12.134Z,57.15
2019-02-22T08:57:41.545Z,54.65
2019-02-22T09:00:12.321Z,55.12
2019-02-22T09:02:41.749Z,54.23
2019-02-22T09:05:11.198Z,52.62
2019-02-22T09:07:40.679Z,52.93
2019-02-22T09:10:11.250Z,50.88
2019-02-22T09:12:40.894Z,49.98
2019-02-22T09:15:10.697Z,49.58
2019-02-22T09:17:40.168Z,49.77
2019-02-22T09:20:11.269Z,48.60
2019-02-22T09:22:40.714Z,49.80
2019-02-22T09:25:10.449Z,50.43
2019-02-22T09:27:39.879Z,48.30
2019-02-22T09:30:11.479Z,49.93
2019-02-22T09:32:41.104Z,47.48
2019-02-22T09:35:11.408Z,49.00
2019-02-22T09:37:40.866Z,46.15
2019-02-22T09:40:11.562Z,51.33
2019-02-22T09:42:41.018Z,46.80
2019-02-22T09:45:12.447Z,46.10
2019-02-22T09:47:41.906Z,47.67
2019-02-22T09:50:13.488Z,48.80
2019-02-22T09:52:42.907Z,48.78
2019-02-22T09:55:13.194Z,46.42
2019-02-22T09:57:42.616Z,46.63
2019-02-22T10:00:15.124Z,48.23
2019-02-22T10:02:45.018Z,47.47
2019-02-22T10:05:14.685Z,45.50
2019-02-22T10:07:44.139Z,50.48
2019-02-22T10:10:13.571Z,48.60
2019-02-22T10:12:43.015Z,50.08
2019-02-22T10:15:12.463Z,49.35
2019-02-22T10:17:41.882Z,46.02
2019-02-22T10:20:11.320Z,49.73
2019-02-22T10:22:40.790Z,51.53
2019-02-22T10:25:10.254Z,47.35
2019-02-22T10:27:39.695Z,48.78
2019-02-22T10:30:11.541Z,47.40
2019-02-22T10:32:41.030Z,47.27
2019-02-22T10:35:10.503Z,48.28
2019-02-22T10:37:39.959Z,48.80
2019-02-22T10:40:10.227Z,48.08
2019-02-22T10:42:39.685Z,48.30
2019-02-22T10:45:10.454Z,50.67
2019-02-22T10:47:39.899Z,50.23
2019-02-22T10:50:09.858Z,50.28
2019-02-22T10:52:39.287Z,50.98
2019-02-22T10:55:11.462Z,47.53
2019-02-22T10:57:40.931Z,48.02
2019-02-22T11:00:15.386Z,48.20
2019-02-22T11:02:44.824Z,49.05
2019-02-22T11:05:14.257Z,48.98
2019-02-22T11:07:43.827Z,53.50
2019-02-22T11:10:14.463Z,49.70
2019-02-22T11:12:43.882Z,49.10
2019-02-22T11:15:13.586Z,48.50
2019-02-22T11:17:42.991Z,46.40
2019-02-22T11:20:12.542Z,47.95
2019-02-22T11:22:42.148Z,44.83
2019-02-22T11:25:13.850Z,44.53
2019-02-22T11:27:46.156Z,44.55
2019-02-22T11:30:15.659Z,46.92
2019-02-22T11:32:45.125Z,45.98
2019-02-22T11:35:14.563Z,46.02
2019-02-22T11:37:43.999Z,43.23
2019-02-22T11:40:13.441Z,46.18
2019-02-22T11:42:42.868Z,45.50
2019-02-22T11:45:12.605Z,47.50
2019-02-22T11:47:42.087Z,45.75
2019-02-22T11:50:12.755Z,44.73
2019-02-22T11:52:42.196Z,44.98
2019-02-22T11:55:11.985Z,43.20
2019-02-22T11:57:41.479Z,42.65
2019-02-22T12:00:14.713Z,39.83
2019-02-22T12:02:45.296Z,39.85
2019-02-22T12:05:15.064Z,41.15
2019-02-22T12:07:44.502Z,38.80
2019-02-22T12:10:14.219Z,88.78
2019-02-22T12:12:43.696Z,37.45
2019-02-22T12:15:14.257Z,38.20
2019-02-22T12:17:43.682Z,38.10
2019-02-22T12:20:13.132Z,36.25
2019-02-22T12:22:42.636Z,38.73
2019-02-22T12:25:15.015Z,39.53
2019-02-22T12:27:44.442Z,38.45
2019-02-22T12:30:15.396Z,39.15
2019-02-22T12:32:44.895Z,37.10
2019-02-22T12:35:14.375Z,36.13
2019-02-22T12:37:43.838Z,36.08
2019-02-22T12:40:13.333Z,36.50
2019-02-22T12:42:42.878Z,37.42
2019-02-22T12:45:13.399Z,32.40
2019-02-22T12:47:46.060Z,32.40
2019-02-22T12:50:15.672Z,27.98
2019-02-22T12:52:45.191Z,23.00
2019-02-22T12:55:14.636Z,21.77
2019-02-22T12:57:44.097Z,20.82
2019-02-22T13:00:16.375Z,22.05
2019-02-22T13:02:45.872Z,22.58
2019-02-22T13:05:21.401Z,22.90
2019-02-22T13:07:52.672Z,20.00
2019-02-22T13:10:22.096Z,21.33
2019-02-22T13:12:51.567Z,20.88
2019-02-22T13:15:21.009Z,22.48
2019-02-22T13:17:50.675Z,26.02
2019-02-22T13:20:20.105Z,26.93
2019-02-22T13:22:49.518Z,29.10
2019-02-22T13:25:19.208Z,23.20
2019-02-22T13:27:48.679Z,26.23
2019-02-22T13:30:18.179Z,25.12
2019-02-22T13:32:47.600Z,23.47
2019-02-22T13:35:17.006Z,22.87
2019-02-22T13:37:46.455Z,24.05
2019-02-22T13:40:17.437Z,24.87
2019-02-22T13:42:46.860Z,19.98
2019-02-22T13:45:26.185Z,20.00
2019-02-22T13:47:47.409Z,23.32
2019-02-22T13:50:18.083Z,25.10
2019-02-22T13:52:47.526Z,19.90
2019-02-22T13:55:16.980Z,19.80
2019-02-22T13:57:46.414Z,17.60
2019-02-22T14:00:18.403Z,19.95
2019-02-22T14:02:48.189Z,16.67
2019-02-22T14:05:17.884Z,17.80
2019-02-22T14:07:54.288Z,18.25
2019-02-22T14:10:24.772Z,18.20
2019-02-22T14:12:54.210Z,18.62
2019-02-22T14:15:24.017Z,15.08
2019-02-22T14:17:53.621Z,18.87
2019-02-22T14:20:23.069Z,18.37
2019-02-22T14:22:52.560Z,20.10
2019-02-22T14:25:21.976Z,20.55
2019-02-22T14:27:51.408Z,19.80
2019-02-22T14:30:20.825Z,19.70
2019-02-22T14:32:50.411Z,21.87
2019-02-22T14:35:19.920Z,20.43
2019-02-22T14:37:51.012Z,21.57
2019-02-22T14:40:20.426Z,20.45
2019-02-22T14:42:49.907Z,22.75
2019-02-22T14:45:20.638Z,21.23
2019-02-22T14:47:50.116Z,23.70
2019-02-22T14:50:19.586Z,20.43
2019-02-22T14:52:49.069Z,22.25
2019-02-22T14:55:18.607Z,23.30
2019-02-22T14:57:48.246Z,21.15
2019-02-22T15:00:21.494Z,21.02
2019-02-22T15:02:50.915Z,20.37
2019-02-22T15:05:20.362Z,13.75
2019-02-22T15:07:49.848Z,14.03
2019-02-22T15:10:19.297Z,12.78
2019-02-22T15:12:48.687Z,14.47
2019-02-22T15:15:21.144Z,16.27
2019-02-22T15:17:52.187Z,13.13
2019-02-22T15:20:21.645Z,12.23
2019-02-22T15:22:51.092Z,13.75
2019-02-22T15:25:20.536Z,13.78
2019-02-22T15:27:49.943Z,13.28
2019-02-22T15:30:19.570Z,15.48
2019-02-22T15:32:48.980Z,16.45
2019-02-22T15:35:18.833Z,19.20
2019-02-22T15:37:48.294Z,14.55
2019-02-22T15:40:17.722Z,14.83
2019-02-22T15:42:47.249Z,16.27
2019-02-22T15:45:19.886Z,15.53
2019-02-22T15:47:49.467Z,15.03
2019-02-22T15:50:19.600Z,14.15
2019-02-22T15:52:50.127Z,13.20
2019-02-22T15:55:19.602Z,14.30
2019-02-22T15:57:49.052Z,13.00
2019-02-22T16:00:27.795Z,11.90
2019-02-22T16:06:53.612Z,20.40
2019-02-22T16:09:23.040Z,14.78
2019-02-22T16:11:52.511Z,15.90
2019-02-22T16:14:21.960Z,18.90
2019-02-22T16:16:51.376Z,18.45
2019-02-22T16:19:20.826Z,18.70
2019-02-22T16:21:50.338Z,21.42
2019-02-22T16:24:19.897Z,24.45
2019-02-22T16:26:50.998Z,23.30
2019-02-22T16:29:20.417Z,21.90
2019-02-22T16:31:49.879Z,21.55
2019-02-22T16:34:21.161Z,20.60
2019-02-22T16:36:50.639Z,23.32
2019-02-22T16:39:20.083Z,18.73
2019-02-22T16:41:49.517Z,20.10
2019-02-22T16:44:19.014Z,22.00
2019-02-22T16:46:48.379Z,24.02
2019-02-22T16:49:17.794Z,23.98
2019-02-22T16:51:47.203Z,24.40
2019-02-22T16:54:16.657Z,22.50
2019-02-22T16:56:46.075Z,22.98
2019-02-22T16:59:15.507Z,23.67
2019-02-22T17:01:44.967Z,23.60
2019-02-22T17:04:14.454Z,23.15
2019-02-22T17:06:43.899Z,22.50
2019-02-22T17:09:13.420Z,24.27
2019-02-22T17:11:42.822Z,25.88
2019-02-22T17:14:12.292Z,26.85
2019-02-22T17:16:45.751Z,26.30
2019-02-22T17:19:12.742Z,23.92
2019-02-22T17:21:44.858Z,25.23
2019-02-22T17:24:14.294Z,28.67
2019-02-22T17:26:43.711Z,22.77
2019-02-22T17:29:13.158Z,17.95
2019-02-22T17:31:42.587Z,19.82
2019-02-22T17:34:12.023Z,18.23
2019-02-22T17:36:41.462Z,21.48
2019-02-22T17:39:10.896Z,20.00
2019-02-22T17:41:42.689Z,17.35
2019-02-22T17:44:11.399Z,18.02
2019-02-22T17:46:40.822Z,19.12
2019-02-22T17:49:10.670Z,20.95
2019-02-22T17:51:40.079Z,20.17
2019-02-22T17:54:11.146Z,21.48
2019-02-22T17:56:40.611Z,21.40
2019-02-22T17:59:11.578Z,21.45
2019-02-22T18:01:41.008Z,23.35
2019-02-22T18:04:10.567Z,21.95
2019-02-22T18:06:39.975Z,24.72
2019-02-22T18:09:09.407Z,25.32
2019-02-22T18:11:39.466Z,27.62
2019-02-22T18:14:08.890Z,28.07
2019-02-22T18:16:38.336Z,29.67
2019-02-22T18:19:07.785Z,30.00
2019-02-22T18:21:37.266Z,30.72
2019-02-22T18:24:06.724Z,30.70
2019-02-22T18:26:37.777Z,31.20
2019-02-22T18:29:07.347Z,29.63
2019-02-22T18:31:36.776Z,30.85
2019-02-22T18:34:06.271Z,29.80
2019-02-22T18:36:36.014Z,27.10
2019-02-22T18:39:06.086Z,26.95
2019-02-22T18:41:35.543Z,28.12
2019-02-22T18:44:04.967Z,28.05
2019-02-22T18:46:34.531Z,26.25
2019-02-22T18:49:03.990Z,28.73
2019-02-22T18:51:33.470Z,30.10
2019-02-22T18:54:02.928Z,27.30
2019-02-22T18:56:32.354Z,28.73
2019-02-22T18:59:01.839Z,35.83
2019-02-22T19:01:31.296Z,30.95
2019-02-22T19:04:00.706Z,29.42
2019-02-22T19:06:30.139Z,32.67
2019-02-22T19:08:59.578Z,33.23
2019-02-22T19:11:29.017Z,33.10
2019-02-22T19:13:58.442Z,35.38
2019-02-22T19:16:27.876Z,34.90
2019-02-22T19:18:57.342Z,36.77
2019-02-22T19:21:26.796Z,37.80
2019-02-22T19:23:56.240Z,34.65
2019-02-22T19:26:25.676Z,34.35
2019-02-22T19:28:55.170Z,37.98
2019-02-22T19:31:24.563Z,39.30
2019-02-22T19:33:53.974Z,42.05
2019-02-22T19:36:23.455Z,36.93
2019-02-22T19:38:52.998Z,35.33
2019-02-22T19:41:22.463Z,34.55
2019-02-22T19:43:52.023Z,38.63
2019-02-22T19:46:21.435Z,37.53
2019-02-22T19:48:50.879Z,38.48
2019-02-22T19:51:21.962Z,37.53
2019-02-22T19:53:51.407Z,36.93
2019-02-22T19:56:22.704Z,36.08
2019-02-22T19:58:52.155Z,38.88
2019-02-22T20:01:21.586Z,36.08
2019-02-22T20:03:51.084Z,39.15
2019-02-22T20:06:20.525Z,42.03
2019-02-22T20:08:50.030Z,42.35
2019-02-22T20:11:19.584Z,39.83
2019-02-22T20:13:49.024Z,38.78
2019-02-22T20:16:18.499Z,37.38
2019-02-22T20:18:47.912Z,36.58
2019-02-22T20:21:17.372Z,38.65
2019-02-22T20:23:47.065Z,38.02
2019-02-22T20:26:16.783Z,38.05
2019-02-22T20:28:46.220Z,39.55
2019-02-22T20:31:20.287Z,37.85
2019-02-22T20:33:46.712Z,39.55
2019-02-22T20:36:16.130Z,41.88
2019-02-22T20:38:45.558Z,39.23
2019-02-22T20:41:15.012Z,41.25
2019-02-22T20:43:44.434Z,40.03
2019-02-22T20:46:13.855Z,42.50
2019-02-22T20:48:43.395Z,43.35
2019-02-22T20:51:12.824Z,41.53
2019-02-22T20:53:42.256Z,40.15
2019-02-22T20:56:11.713Z,42.00
2019-02-22T20:58:41.155Z,44.23
2019-02-22T21:01:14.809Z,44.40
2019-02-22T21:03:44.099Z,43.52
2019-02-22T21:06:13.521Z,45.35
2019-02-22T21:08:43.016Z,44.00
2019-02-22T21:11:12.459Z,44.65
2019-02-22T21:13:41.889Z,43.17
2019-02-22T21:16:11.324Z,45.40
2019-02-22T21:18:40.831Z,45.00
2019-02-22T21:21:10.260Z,46.23
2019-02-22T21:23:39.673Z,46.65
2019-02-22T21:26:09.150Z,46.95
2019-02-22T21:28:38.599Z,47.43
2019-02-22T21:31:08.039Z,46.75
2019-02-22T21:33:37.476Z,47.40
2019-02-22T21:36:06.926Z,49.95
2019-02-22T21:38:36.389Z,48.17
2019-02-22T21:41:05.862Z,50.05
2019-02-22T21:43:40.387Z,53.15
2019-02-22T21:46:13.704Z,48.65
2019-02-22T21:48:45.136Z,51.18
2019-02-22T21:51:14.647Z,53.87
2019-02-22T21:53:44.054Z,49.98
2019-02-22T21:56:15.231Z,50.70
2019-02-22T21:58:48.863Z,51.90
2019-02-22T22:01:18.211Z,49.65
2019-02-22T22:03:51.139Z,50.80
2019-02-22T22:06:20.116Z,52.27
2019-02-22T22:08:50.055Z,55.33
2019-02-22T22:11:20.182Z,54.35
2019-02-22T22:13:49.813Z,53.80
2019-02-22T22:16:22.813Z,54.27
2019-02-22T22:18:55.960Z,54.73
2019-02-22T22:21:25.846Z,53.15
2019-02-22T22:23:57.033Z,54.35
2019-02-22T22:26:26.488Z,51.92
2019-02-22T22:28:55.955Z,53.08
2019-02-22T22:31:25.387Z,52.62
2019-02-22T22:33:54.844Z,53.00
2019-02-22T22:36:24.282Z,53.80
2019-02-22T22:38:55.003Z,54.60
2019-02-22T22:41:24.587Z,54.20
2019-02-22T22:43:54.027Z,53.63
2019-02-22T22:46:23.459Z,54.95
2019-02-22T22:48:52.880Z,54.83
2019-02-22T22:51:22.393Z,55.73
2019-02-22T22:53:51.822Z,54.40
2019-02-22T22:56:21.247Z,54.58
2019-02-22T22:58:50.702Z,55.58
2019-02-22T23:01:21.108Z,57.55
2019-02-22T23:03:50.554Z,55.20
2019-02-22T23:06:20.324Z,54.77
2019-02-22T23:08:49.775Z,54.60
2019-02-22T23:11:19.247Z,53.13
2019-02-22T23:13:48.682Z,54.08
2019-02-22T23:16:18.111Z,54.27
2019-02-22T23:18:47.646Z,53.33
2019-02-22T23:21:17.026Z,54.48
2019-02-22T23:23:46.427Z,53.65
2019-02-22T23:26:15.884Z,55.15
2019-02-22T23:28:45.313Z,56.10
2019-02-22T23:31:14.719Z,56.50
2019-02-22T23:33:44.190Z,57.48
2019-02-22T23:36:13.608Z,54.75
2019-02-22T23:38:43.042Z,55.83
2019-02-22T23:41:12.473Z,56.50
2019-02-22T23:43:42.003Z,57.17
2019-02-22T23:46:11.455Z,57.35
2019-02-22T23:48:40.895Z,56.02
2019-02-22T23:51:10.323Z,56.13
2019-02-22T23:53:39.800Z,54.63
2019-02-22T23:56:09.246Z,54.53
2019-02-22T23:58:38.666Z,56.02
